createdAt,value
2023-04-08T00:32:42.894Z,442
2023-04-08T00:52:42.948Z,440
2023-04-08T01:12:49.971Z,440
2023-04-08T01:32:43.035Z,441
2023-04-08T01:52:43.042Z,437
2023-04-08T02:12:43.113Z,437
2023-04-08T02:32:43.135Z,434
2023-04-08T02:52:43.036Z,427
2023-04-08T03:12:43.199Z,421
2023-04-08T03:32:43.279Z,426
2023-04-08T03:52:43.259Z,426
2023-04-08T04:12:43.196Z,427
2023-04-08T04:32:43.352Z,427
2023-04-08T04:52:43.385Z,419
2023-04-08T05:12:43.456Z,422
2023-04-08T05:32:43.494Z,423
2023-04-08T05:52:43.500Z,422
2023-04-08T06:12:43.530Z,423
2023-04-08T06:32:43.593Z,424
2023-04-08T06:52:43.593Z,424
2023-04-08T07:12:43.908Z,422
2023-04-08T07:32:43.747Z,424
2023-04-08T07:52:43.738Z,424
2023-04-08T08:12:43.786Z,426
2023-04-08T08:32:43.860Z,424
2023-04-08T08:52:43.854Z,420
2023-04-08T09:12:43.874Z,420
2023-04-08T09:32:43.935Z,424
2023-04-08T09:52:43.982Z,423
2023-04-08T10:12:43.989Z,422
2023-04-08T10:32:44.035Z,424
2023-04-08T10:52:44.031Z,422
2023-04-08T11:12:44.083Z,422
2023-04-08T11:32:44.136Z,419
2023-04-08T12:12:44.179Z,415
2023-04-08T12:32:44.267Z,422
2023-04-08T12:52:44.236Z,416
2023-04-08T13:12:44.286Z,416
2023-04-08T13:32:44.350Z,420
2023-04-08T13:52:44.327Z,417
2023-04-08T14:12:44.379Z,413
2023-04-08T14:32:44.436Z,416
2023-04-08T14:52:44.430Z,417
2023-04-08T15:32:44.498Z,415
2023-04-08T15:52:44.524Z,415
2023-04-08T16:12:44.531Z,417
2023-04-08T16:32:44.585Z,416
2023-04-08T16:52:44.629Z,411
2023-04-08T17:12:44.657Z,411
2023-04-08T17:32:44.733Z,412
2023-04-08T17:52:44.732Z,411
2023-04-08T18:12:44.736Z,410
2023-04-08T18:32:44.808Z,410
2023-04-08T18:52:44.849Z,411
2023-04-08T19:12:44.905Z,408
2023-04-08T19:32:44.906Z,407
2023-04-08T19:52:44.959Z,411
2023-04-08T20:12:44.969Z,407
2023-04-08T20:52:44.936Z,401
2023-04-08T21:12:45.074Z,406
2023-04-08T21:32:45.034Z,407
2023-04-08T21:52:45.152Z,409
2023-04-08T22:12:45.200Z,411
2023-04-08T22:32:45.244Z,407
2023-04-08T22:52:45.269Z,405
2023-04-08T23:12:45.411Z,402
2023-04-08T23:52:45.362Z,401
